Time;durP1;ratioP1;P1;durP2;ratioP2;P2;SDS_P1;SDS_P2;PMS_P1;PMS_P2;Temp;Humidity;BMP_temperature;BMP_pressure;BME280_temperature;BME280_humidity;BME280_pressure;Samples;Min_cycle;Max_cycle;Signal;HPM_P1;HPM_P2
2022/09/20 00:01:46;;;;;;;4.97;1.90;;;15.80;56.90;;;;;;7368564;19;20012;-76
2022/09/20 00:04:15;;;;;;;7.00;1.88;;;15.80;57.00;;;;;;7370231;19;20031;-77
2022/09/20 00:06:43;;;;;;;6.25;2.28;;;15.70;57.20;;;;;;7369247;19;20110;-77
2022/09/20 00:09:12;;;;;;;8.57;2.05;;;15.70;57.30;;;;;;7367161;19;20505;-77
2022/09/20 00:11:44;;;;;;;7.07;2.15;;;15.70;57.30;;;;;;7387832;19;20329;-77
2022/09/20 00:14:12;;;;;;;5.38;1.88;;;15.70;57.40;;;;;;7367138;19;20334;-77
2022/09/20 00:16:42;;;;;;;11.10;1.90;;;15.60;57.40;;;;;;7367814;19;20011;-78
2022/09/20 00:19:18;;;;;;;9.65;1.85;;;15.60;57.60;;;;;;7367528;19;20028;-77
2022/09/20 00:21:47;;;;;;;6.82;2.00;;;15.60;57.60;;;;;;7370000;19;20018;-77
2022/09/20 00:24:16;;;;;;;7.20;2.00;;;15.60;57.50;;;;;;7367833;19;20740;-77
2022/09/20 00:26:48;;;;;;;7.75;1.75;;;15.60;57.50;;;;;;7390942;19;20079;-77
2022/09/20 00:29:17;;;;;;;8.05;2.67;;;15.50;57.50;;;;;;7367410;19;20082;-76
2022/09/20 00:31:46;;;;;;;5.97;1.80;;;15.50;57.60;;;;;;7368308;19;20052;-77
2022/09/20 00:36:56;;;;;;;5.43;1.70;;;15.50;57.70;;;;;;7367633;19;20025;-76
2022/09/20 00:39:24;;;;;;;5.93;2.22;;;15.40;57.70;;;;;;7367940;19;20018;-77
2022/09/20 00:41:56;;;;;;;11.18;2.00;;;15.40;57.90;;;;;;7389701;19;20106;-77
2022/09/20 00:44:44;;;;;;;4.28;1.77;;;15.30;58.00;;;;;;7364428;19;20027;-77
2022/09/20 00:47:21;;;;;;;6.18;2.35;;;15.20;58.10;;;;;;7367947;19;20018;-77
2022/09/20 00:49:51;;;;;;;4.97;1.92;;;15.20;58.20;;;;;;7367855;19;20437;-77
2022/09/20 00:52:20;;;;;;;12.05;1.90;;;15.10;58.30;;;;;;7366631;19;20617;-77
2022/09/20 00:54:49;;;;;;;7.35;1.90;;;15.10;58.40;;;;;;7366876;19;20074;-77
2022/09/20 00:57:21;;;;;;;5.93;1.80;;;15.10;58.40;;;;;;7365968;19;20010;-77
2022/09/20 00:59:52;;;;;;;2.25;1.42;;;15.10;58.60;;;;;;7388229;19;20090;-77
2022/09/20 01:02:24;;;;;;;5.47;2.03;;;15.10;58.60;;;;;;7367176;19;20014;-77
2022/09/20 01:04:53;;;;;;;3.42;1.88;;;15.10;58.50;;;;;;7368411;19;20090;-76
2022/09/20 01:07:23;;;;;;;9.77;2.17;;;15.10;58.10;;;;;;7367140;19;20031;-77
2022/09/20 01:09:54;;;;;;;3.38;1.75;;;15.10;58.10;;;;;;7365769;19;20014;-77
2022/09/20 01:12:28;;;;;;;4.85;2.30;;;15.10;58.10;;;;;;7368367;19;20025;-77
2022/09/20 01:14:59;;;;;;;5.40;1.60;;;15.10;58.00;;;;;;7388990;19;20333;-77
2022/09/20 01:17:30;;;;;;;4.57;1.70;;;15.20;57.90;;;;;;7367584;19;20018;-77
2022/09/20 01:20:12;;;;;;;5.05;2.10;;;15.10;57.90;;;;;;7368245;19;20056;-76
2022/09/20 01:22:52;;;;;;;4.53;1.80;;;15.10;58.00;;;;;;7378317;19;20015;-77
2022/09/20 01:25:32;;;;;;;4.22;1.60;;;15.10;58.00;;;;;;7376534;19;20344;-77
2022/09/20 01:28:03;;;;;;;4.90;1.88;;;15.10;57.90;;;;;;7372104;19;20040;-77
2022/09/20 01:30:35;;;;;;;;;;;15.10;57.90;;;;;;7369252;19;20031;-77
2022/09/20 01:33:09;;;;;;;;;;;15.10;58.00;;;;;;7388690;19;20003;-77
2022/09/20 01:35:39;;;;;;;6.22;1.77;;;15.00;58.20;;;;;;7368331;19;20016;-77
2022/09/20 01:38:26;;;;;;;5.32;1.70;;;15.00;58.20;;;;;;7366727;19;20718;-77
2022/09/20 01:41:03;;;;;;;5.80;1.85;;;14.90;58.30;;;;;;7365418;19;20017;-77
2022/09/20 01:43:39;;;;;;;5.68;2.05;;;14.90;58.40;;;;;;7365080;19;20525;-76
2022/09/20 01:46:18;;;;;;;4.35;1.73;;;14.90;58.30;;;;;;7366631;19;20353;-77
2022/09/20 01:48:47;;;;;;;9.80;1.98;;;14.90;58.10;;;;;;7367189;19;20097;-76
2022/09/20 01:51:38;;;;;;;4.32;1.90;;;14.90;58.00;;;;;;7366553;19;20086;-77
2022/09/20 01:54:27;;;;;;;4.07;1.90;;;14.90;58.10;;;;;;7375801;19;20026;-78
2022/09/20 01:57:31;;;;;;;6.65;2.00;;;14.90;58.80;;;;;;7395277;19;20014;-77
2022/09/20 02:00:13;;;;;;;6.03;2.13;;;14.90;58.00;;;;;;7371644;19;20058;-77
2022/09/20 02:03:24;;;;;;;7.13;3.53;;;14.90;57.90;;;;;;7372870;19;20614;-78
2022/09/20 02:06:27;;;;;;;12.35;4.10;;;14.90;58.00;;;;;;7374279;19;20067;-77
2022/09/20 02:09:31;;;;;;;12.15;4.10;;;14.80;58.00;;;;;;7374861;19;20010;-77
2022/09/20 02:12:27;;;;;;;10.52;2.83;;;14.80;58.10;;;;;;7373051;19;20109;-77
2022/09/20 02:15:08;;;;;;;6.75;2.80;;;14.70;58.40;;;;;;7371778;19;20086;-77
2022/09/20 02:17:46;;;;;;;;;;;14.60;58.40;;;;;;7373147;19;20014;-77
2022/09/20 02:20:33;;;;;;;10.27;2.53;;;14.70;58.50;;;;;;7371190;19;19932;-77
2022/09/20 02:23:21;;;;;;;6.57;2.45;;;14.60;58.40;;;;;;7368805;19;20018;-77
2022/09/20 02:26:06;;;;;;;8.18;1.73;;;14.60;58.40;;;;;;7368522;19;20018;-77
2022/09/20 02:28:54;;;;;;;8.25;1.88;;;14.60;58.50;;;;;;7369063;19;20019;-77
2022/09/20 02:31:35;;;;;;;6.97;2.30;;;14.60;58.50;;;;;;7369817;19;20017;-77
2022/09/20 02:34:37;;;;;;;8.20;1.90;;;14.60;58.40;;;;;;7367962;19;20439;-77
2022/09/20 02:37:25;;;;;;;8.15;2.22;;;14.50;58.30;;;;;;7368564;19;20032;-77
2022/09/20 02:40:08;;;;;;;8.63;2.10;;;14.50;58.40;;;;;;7366732;19;20018;-77
2022/09/20 02:42:43;;;;;;;4.05;1.83;;;14.40;58.80;;;;;;7369407;19;20006;-77
2022/09/20 02:45:21;;;;;;;4.15;1.67;;;14.30;59.60;;;;;;7365558;19;20732;-78
2022/09/20 02:47:51;;;;;;;5.03;1.90;;;14.30;59.30;;;;;;7391047;19;20094;-76
2022/09/20 02:50:33;;;;;;;6.68;2.17;;;14.20;59.30;;;;;;7370201;19;20082;-77
2022/09/20 02:53:18;;;;;;;5.68;1.73;;;14.20;59.30;;;;;;7368697;19;20094;-77
2022/09/20 02:55:56;;;;;;;4.70;1.77;;;14.20;59.30;;;;;;7369632;19;20010;-76
2022/09/20 02:58:38;;;;;;;8.70;2.35;;;14.20;59.50;;;;;;7368138;19;20011;-77
2022/09/20 03:01:19;;;;;;;6.03;2.25;;;14.10;59.30;;;;;;7369099;19;20696;-77
2022/09/20 03:03:57;;;;;;;8.23;2.15;;;14.10;59.60;;;;;;7368859;19;20482;-77
2022/09/20 03:06:35;;;;;;;4.07;1.88;;;14.10;59.40;;;;;;7365636;19;20119;-77
2022/09/20 03:09:16;;;;;;;4.18;1.98;;;14.00;59.40;;;;;;7386402;19;20088;-77
2022/09/20 03:11:54;;;;;;;9.57;2.25;;;14.00;60.00;;;;;;7369388;19;20460;-76
2022/09/20 03:14:29;;;;;;;7.00;2.10;;;14.10;59.50;;;;;;7370281;19;20459;-77
2022/09/20 03:17:07;;;;;;;11.25;1.90;;;14.10;59.30;;;;;;7370452;19;20070;-77
2022/09/20 03:19:52;;;;;;;7.60;2.20;;;14.10;59.40;;;;;;7371731;19;20010;-77
2022/09/20 03:22:38;;;;;;;9.00;2.08;;;14.10;59.50;;;;;;7370193;19;20097;-77
2022/09/20 03:25:36;;;;;;;4.70;2.00;;;14.10;59.50;;;;;;7369299;19;20078;-77
2022/09/20 03:28:23;;;;;;;4.95;1.98;;;14.10;60.00;;;;;;7368746;19;20074;-77
2022/09/20 03:31:02;;;;;;;4.93;1.75;;;14.00;60.10;;;;;;7369983;19;20122;-77
2022/09/20 03:33:44;;;;;;;3.70;1.83;;;14.00;60.00;;;;;;7372136;19;20010;-77
2022/09/20 03:36:26;;;;;;;6.22;1.90;;;14.00;59.90;;;;;;7371995;19;20035;-77
2022/09/20 03:39:09;;;;;;;3.90;1.90;;;14.00;60.20;;;;;;7393538;19;20027;-77
2022/09/20 03:42:03;;;;;;;6.20;1.98;;;14.00;60.50;;;;;;7370514;19;20014;-77
2022/09/20 03:45:01;;;;;;;4.55;1.75;;;14.00;60.20;;;;;;7369832;19;20082;-77
2022/09/20 03:47:50;;;;;;;5.15;1.60;;;14.00;60.50;;;;;;7370101;19;20025;-77
2022/09/20 03:50:48;;;;;;;6.45;1.73;;;14.00;60.40;;;;;;7372141;19;20098;-77
2022/09/20 03:53:53;;;;;;;2.35;1.52;;;14.00;60.40;;;;;;7371116;19;20056;-77
2022/09/20 03:56:46;;;;;;;5.70;1.85;;;14.00;60.10;;;;;;7369531;19;20118;-76
2022/09/20 03:59:39;;;;;;;9.45;2.20;;;14.10;60.00;;;;;;7369365;19;20011;-76
2022/09/20 04:02:25;;;;;;;7.60;1.98;;;14.00;59.50;;;;;;7368668;19;20011;-77
2022/09/20 04:04:59;;;;;;;10.20;1.92;;;14.00;59.10;;;;;;7370274;19;20021;-76
2022/09/20 04:07:38;;;;;;;8.05;2.20;;;14.10;59.10;;;;;;7370020;19;20018;-77
2022/09/20 04:10:29;;;;;;;4.47;1.58;;;14.00;59.10;;;;;;7371364;19;20011;-77
2022/09/20 04:13:21;;;;;;;7.25;1.98;;;14.00;59.20;;;;;;7377756;19;20078;-77
2022/09/20 04:16:06;;;;;;;4.38;1.98;;;14.00;59.20;;;;;;7382029;19;20014;-76
2022/09/20 04:18:39;;;;;;;12.30;1.98;;;14.10;59.00;;;;;;7377042;19;20094;-77
2022/09/20 04:21:13;;;;;;;6.68;1.98;;;14.00;59.60;;;;;;7375211;19;20081;-77
2022/09/20 04:23:52;;;;;;;5.53;2.28;;;14.00;59.00;;;;;;7396755;19;20320;-77
2022/09/20 04:26:27;;;;;;;5.93;2.15;;;14.00;59.20;;;;;;7370922;19;20014;-77
2022/09/20 04:29:00;;;;;;;5.40;1.80;;;14.00;59.20;;;;;;7372477;19;20818;-77
2022/09/20 04:31:39;;;;;;;5.90;1.98;;;13.90;59.20;;;;;;7373274;19;20010;-76
2022/09/20 04:34:16;;;;;;;6.38;1.70;;;13.90;59.30;;;;;;7369606;19;20433;-76
2022/09/20 04:37:02;;;;;;;3.83;2.00;;;13.90;59.50;;;;;;7370416;19;20035;-77
2022/09/20 04:39:42;;;;;;;6.40;1.98;;;13.80;59.70;;;;;;7369408;19;20022;-76
2022/09/20 04:42:59;;;;;;;12.18;1.88;;;13.80;59.80;;;;;;7366766;19;20011;-79
2022/09/20 04:45:55;;;;;;;6.43;1.90;;;13.80;59.80;;;;;;7366809;19;20150;-77
2022/09/20 04:49:02;;;;;;;9.77;2.60;;;13.80;60.10;;;;;;7365438;19;20101;-76
2022/09/20 04:51:56;;;;;;;7.00;2.38;;;13.70;60.10;;;;;;7366059;19;20067;-77
2022/09/20 04:54:55;;;;;;;6.47;2.00;;;13.80;60.20;;;;;;7363724;19;20022;-76
2022/09/20 04:58:06;;;;;;;9.10;2.72;;;13.70;60.00;;;;;;7364844;19;20070;-78
2022/09/20 05:00:51;;;;;;;8.98;2.83;;;13.70;60.20;;;;;;7363020;19;20015;-77
2022/09/20 05:03:39;;;;;;;6.72;4.15;;;13.70;60.20;;;;;;7363159;19;20010;-77
2022/09/20 05:06:42;;;;;;;8.90;2.80;;;13.70;60.20;;;;;;7364662;19;20022;-77
2022/09/20 05:09:42;;;;;;;10.13;2.97;;;13.70;60.10;;;;;;7363716;19;20031;-76
2022/09/20 05:12:56;;;;;;;10.98;4.30;;;13.70;60.00;;;;;;7363298;19;20086;-76
2022/09/20 05:15:43;;;;;;;13.00;2.75;;;13.70;60.10;;;;;;7361472;19;20695;-77
2022/09/20 05:18:44;;;;;;;8.88;2.35;;;13.70;60.20;;;;;;7361397;19;20014;-77
2022/09/20 05:21:31;;;;;;;7.20;2.00;;;13.60;60.00;;;;;;7361712;19;20014;-76
2022/09/20 05:24:23;;;;;;;8.90;2.50;;;13.60;60.10;;;;;;7383336;19;20035;-77
2022/09/20 05:27:05;;;;;;;9.02;2.60;;;13.60;60.10;;;;;;7362968;19;20082;-76
2022/09/20 05:29:40;;;;;;;6.32;2.55;;;13.60;61.10;;;;;;7363678;19;20010;-76
2022/09/20 05:32:17;;;;;;;5.80;2.25;;;13.60;60.50;;;;;;7363925;19;20121;-76
2022/09/20 05:34:50;;;;;;;6.63;2.30;;;13.60;60.60;;;;;;7365068;19;20506;-77
2022/09/20 05:37:30;;;;;;;6.90;2.58;;;13.60;60.50;;;;;;7363782;19;20475;-76
2022/09/20 05:40:07;;;;;;;7.88;2.40;;;13.60;60.20;;;;;;7366123;19;20441;-76
2022/09/20 05:42:45;;;;;;;10.75;2.53;;;13.70;60.20;;;;;;7365905;19;20011;-76
2022/09/20 05:45:35;;;;;;;6.30;2.13;;;13.80;60.10;;;;;;7367523;19;20028;-76
2022/09/20 05:48:15;;;;;;;8.60;2.20;;;13.80;59.90;;;;;;7394520;19;20007;-76
2022/09/20 05:50:52;;;;;;;13.88;2.63;;;13.80;59.80;;;;;;7390288;19;20011;-76
2022/09/20 05:53:59;;;;;;;7.72;3.20;;;13.80;59.70;;;;;;7391258;19;20007;-76
2022/09/20 05:56:48;;;;;;;5.38;2.47;;;13.90;59.80;;;;;;7376602;19;20086;-76
2022/09/20 05:59:30;;;;;;;13.35;3.13;;;13.90;59.80;;;;;;7370850;19;20027;-76
2022/09/20 06:02:14;;;;;;;;;;;14.00;59.70;;;;;;7366844;19;20019;-76
2022/09/20 06:04:49;;;;;;;8.95;2.40;;;14.10;59.60;;;;;;7370686;19;19999;-75
2022/09/20 06:07:26;;;;;;;9.55;2.63;;;14.00;59.60;;;;;;7370208;19;20045;-76
2022/09/20 06:10:25;;;;;;;10.43;2.65;;;14.10;59.90;;;;;;7364165;19;20014;-76
2022/09/20 06:13:03;;;;;;;10.98;2.50;;;14.00;60.30;;;;;;7364963;19;20021;-77
2022/09/20 06:15:39;;;;;;;19.23;2.92;;;14.00;60.60;;;;;;7363502;19;20025;-77
2022/09/20 06:18:22;;;;;;;9.75;2.63;;;14.00;60.80;;;;;;7360096;19;20078;-77
2022/09/20 06:20:58;;;;;;;27.67;2.95;;;14.10;60.90;;;;;;7384509;19;20496;-76
2022/09/20 06:23:27;;;;;;;5.78;2.42;;;14.20;61.00;;;;;;7362690;19;20109;-77
2022/09/20 06:26:01;;;;;;;7.72;2.60;;;14.30;61.10;;;;;;7361923;19;20031;-76
2022/09/20 06:28:35;;;;;;;7.85;3.00;;;14.30;61.10;;;;;;7362823;19;20075;-77
2022/09/20 06:31:06;;;;;;;10.95;2.80;;;14.40;61.20;;;;;;7360963;19;20123;-76
2022/09/20 06:33:36;;;;;;;8.95;2.45;;;14.40;60.90;;;;;;7362888;19;20136;-75
2022/09/20 06:41:46;;;;;;;32.10;2.97;;;14.50;61.20;;;;;;7362958;19;20015;-77
2022/09/20 06:44:17;;;;;;;13.68;2.53;;;14.60;61.50;;;;;;7369730;19;20018;-76
2022/09/20 06:46:46;;;;;;;10.70;2.85;;;14.60;61.40;;;;;;7370275;19;20007;-77
2022/09/20 06:49:15;;;;;;;10.55;2.67;;;14.60;61.40;;;;;;7374969;19;20106;-76
2022/09/20 06:51:43;;;;;;;10.43;2.30;;;14.60;61.50;;;;;;7377294;19;20090;-77
2022/09/20 06:54:18;;;;;;;12.60;2.38;;;14.60;61.50;;;;;;7370959;19;20018;-76
2022/09/20 06:56:49;;;;;;;11.13;2.28;;;14.70;61.60;;;;;;7396457;19;20054;-76
2022/09/20 06:59:20;;;;;;;16.40;2.78;;;14.70;61.50;;;;;;7377840;19;20098;-77
2022/09/20 07:01:49;;;;;;;12.45;2.72;;;14.70;61.60;;;;;;7380028;19;20015;-77
2022/09/20 07:04:18;;;;;;;14.32;2.60;;;14.70;61.60;;;;;;7382692;19;20010;-77
2022/09/20 07:06:47;;;;;;;12.10;3.10;;;14.80;61.60;;;;;;7380474;19;20059;-78
2022/09/20 07:09:16;;;;;;;12.00;2.88;;;14.80;61.80;;;;;;7373715;19;20506;-80
2022/09/20 07:11:45;;;;;;;6.82;2.55;;;14.80;62.80;;;;;;7403795;19;20010;-86
2022/09/20 07:14:17;;;;;;;12.60;3.30;;;14.90;62.10;;;;;;7395746;19;20447;-82
2022/09/20 07:16:49;;;;;;;10.60;2.80;;;14.90;63.00;;;;;;7396168;19;20036;-83
2022/09/20 07:19:18;;;;;;;8.95;2.90;;;14.90;62.20;;;;;;7388861;19;20010;-83
2022/09/20 07:21:47;;;;;;;10.90;2.88;;;14.90;62.20;;;;;;7380590;19;20010;-82
2022/09/20 07:24:15;;;;;;;10.27;2.53;;;15.00;62.30;;;;;;7381587;19;20010;-82
2022/09/20 07:26:56;;;;;;;8.90;2.63;;;15.00;62.30;;;;;;7403969;19;20424;-83
2022/09/20 07:29:26;;;;;;;9.75;3.20;;;15.00;62.40;;;;;;7379135;19;20688;-87
2022/09/20 07:31:58;;;;;;;11.95;2.95;;;15.00;62.30;;;;;;7378295;19;20010;-83
2022/09/20 07:34:27;;;;;;;15.52;3.13;;;14.90;62.20;;;;;;7377672;19;20047;-83
2022/09/20 07:37:05;;;;;;;15.98;3.28;;;14.90;62.20;;;;;;7378702;19;20010;-85
2022/09/20 07:39:34;;;;;;;14.27;2.88;;;14.90;62.20;;;;;;7379731;19;20014;-85
2022/09/20 07:42:05;;;;;;;10.73;2.95;;;14.80;62.40;;;;;;7402017;19;20007;-85
2022/09/20 07:44:35;;;;;;;10.18;2.38;;;14.80;62.60;;;;;;7377920;19;20015;-84
2022/09/20 07:47:08;;;;;;;13.07;2.77;;;14.70;62.40;;;;;;7372326;19;20044;-84
2022/09/20 07:49:38;;;;;;;9.98;2.60;;;14.80;62.70;;;;;;7374709;19;20010;-86
2022/09/20 07:52:09;;;;;;;8.10;2.67;;;14.80;62.60;;;;;;7372790;19;20022;-86
2022/09/20 07:54:38;;;;;;;8.75;2.28;;;14.80;62.40;;;;;;7372058;19;20442;-87
2022/09/20 07:57:07;;;;;;;12.93;2.50;;;14.90;62.20;;;;;;7382600;19;20047;-84
2022/09/20 07:59:36;;;;;;;7.22;2.53;;;15.00;62.30;;;;;;7397048;19;20053;-87
2022/09/20 08:02:08;;;;;;;24.40;3.95;;;15.10;62.30;;;;;;7376347;19;20003;-83
2022/09/20 08:04:37;;;;;;;11.60;2.80;;;15.10;62.00;;;;;;7374926;19;20433;-85
2022/09/20 08:07:06;;;;;;;6.88;2.50;;;15.10;62.00;;;;;;7371829;19;20022;-85
2022/09/20 08:09:34;;;;;;;10.13;2.95;;;15.20;62.20;;;;;;7375629;19;20327;-84
2022/09/20 08:12:04;;;;;;;13.75;3.10;;;15.30;62.20;;;;;;7390918;19;20430;-84
2022/09/20 08:14:33;;;;;;;14.25;2.70;;;15.40;62.20;;;;;;7370774;19;20030;-85
2022/09/20 08:17:02;;;;;;;8.05;2.95;;;15.50;61.90;;;;;;7372770;19;20014;-85
2022/09/20 08:19:33;;;;;;;19.88;3.28;;;15.50;61.60;;;;;;7371794;19;20031;-85
2022/09/20 08:22:03;;;;;;;6.55;2.35;;;15.60;61.60;;;;;;7370798;19;20027;-86
2022/09/20 08:24:32;;;;;;;11.20;2.50;;;15.70;61.40;;;;;;7373274;19;20015;-86
2022/09/20 08:27:03;;;;;;;11.65;2.42;;;15.80;61.50;;;;;;7396447;19;20029;-84
2022/09/20 08:29:32;;;;;;;10.23;2.80;;;15.80;60.90;;;;;;7371173;19;20018;-85
2022/09/20 08:32:02;;;;;;;8.75;2.28;;;15.80;60.60;;;;;;7370036;19;20018;-82
2022/09/20 08:34:33;;;;;;;19.17;2.72;;;15.80;60.70;;;;;;7376335;19;20549;-84
2022/09/20 08:37:01;;;;;;;;;;;15.90;60.80;;;;;;7374381;19;20014;-83
2022/09/20 08:39:30;;;;;;;14.13;2.60;;;16.00;60.80;;;;;;7373346;19;19919;-85
2022/09/20 08:42:07;;;;;;;4.85;2.45;;;16.00;60.50;;;;;;7401847;19;20007;-85
2022/09/20 08:44:44;;;;;;;12.75;2.60;;;16.10;60.30;;;;;;7383542;19;20050;-84
2022/09/20 08:47:20;;;;;;;10.27;2.90;;;16.10;60.30;;;;;;7378708;19;20011;-83
2022/09/20 08:49:55;;;;;;;9.15;2.50;;;16.20;60.20;;;;;;7378237;19;20015;-83
2022/09/20 08:52:31;;;;;;;12.20;2.55;;;16.20;61.10;;;;;;7370698;19;20006;-82
2022/09/20 08:55:02;;;;;;;13.85;2.22;;;16.20;60.20;;;;;;7374042;19;20011;-84
2022/09/20 08:57:35;;;;;;;15.50;2.23;;;16.30;60.40;;;;;;7375377;19;20022;-83
2022/09/20 09:00:06;;;;;;;7.90;2.45;;;16.40;60.50;;;;;;7401046;19;20039;-84
2022/09/20 09:02:35;;;;;;;10.38;2.90;;;16.40;60.20;;;;;;7378454;19;20076;-83
2022/09/20 09:05:30;;;;;;;16.67;2.90;;;16.50;60.00;;;;;;7372565;19;20490;-83
2022/09/20 09:08:02;;;;;;;23.08;3.83;;;16.40;60.10;;;;;;7371799;19;20039;-84
2022/09/20 09:10:37;;;;;;;12.15;2.88;;;16.50;60.00;;;;;;7369564;19;20049;-86
2022/09/20 09:13:07;;;;;;;11.50;2.90;;;16.50;60.00;;;;;;7374070;19;20086;-85
2022/09/20 09:15:37;;;;;;;11.40;2.83;;;16.60;60.10;;;;;;7369013;19;20031;-84
2022/09/20 09:18:10;;;;;;;26.45;2.70;;;16.60;60.20;;;;;;7385373;19;20018;-82
2022/09/20 09:20:46;;;;;;;21.40;2.92;;;16.70;59.90;;;;;;7392549;19;20022;-81
2022/09/20 09:23:26;;;;;;;10.80;2.20;;;16.70;59.50;;;;;;7370254;19;20023;-83
2022/09/20 09:25:56;;;;;;;10.98;2.42;;;16.80;59.40;;;;;;7368304;19;20018;-83
2022/09/20 09:28:30;;;;;;;17.02;2.63;;;16.80;59.00;;;;;;7370487;19;20010;-84
2022/09/20 09:31:15;;;;;;;16.60;2.40;;;16.90;59.00;;;;;;7375875;19;20360;-83
2022/09/20 09:33:47;;;;;;;11.75;1.90;;;17.00;58.70;;;;;;7388918;19;20011;-81
2022/09/20 09:36:23;;;;;;;13.82;2.28;;;17.10;58.40;;;;;;7400085;19;20065;-81
2022/09/20 09:38:52;;;;;;;10.13;1.90;;;17.10;58.50;;;;;;7415242;19;20019;-83
2022/09/20 09:41:32;;;;;;;7.78;1.83;;;17.20;58.70;;;;;;7376342;19;20031;-84
2022/09/20 09:44:03;;;;;;;9.43;1.90;;;17.30;58.40;;;;;;7373609;19;20014;-82
2022/09/20 09:46:33;;;;;;;12.93;2.40;;;17.40;57.40;;;;;;7372968;19;20290;-82
2022/09/20 09:49:14;;;;;;;9.18;2.05;;;17.40;57.40;;;;;;7376269;19;20022;-85
2022/09/20 09:52:03;;;;;;;15.13;2.47;;;17.50;57.10;;;;;;7373063;19;20015;-83
2022/09/20 09:54:34;;;;;;;14.98;2.45;;;17.50;57.40;;;;;;7377421;19;20014;-83
2022/09/20 09:57:24;;;;;;;7.70;1.90;;;17.60;57.10;;;;;;7399721;19;20006;-83
2022/09/20 10:00:10;;;;;;;10.98;1.70;;;17.60;57.50;;;;;;7378612;19;20015;-84
2022/09/20 10:03:00;;;;;;;11.00;1.73;;;17.60;56.80;;;;;;7383803;19;20014;-84
2022/09/20 10:05:37;;;;;;;6.55;1.70;;;17.60;56.70;;;;;;7386295;19;20018;-78
2022/09/20 10:08:22;;;;;;;8.05;1.50;;;17.70;56.50;;;;;;7383276;19;20030;-81
2022/09/20 10:11:05;;;;;;;7.53;1.83;;;17.80;56.50;;;;;;7375153;19;20015;-82
2022/09/20 10:13:40;;;;;;;5.97;1.50;;;17.90;56.50;;;;;;7372933;19;20015;-82
2022/09/20 10:16:22;;;;;;;19.10;1.95;;;18.00;55.70;;;;;;7375253;19;20007;-84
2022/09/20 10:19:00;;;;;;;3.63;1.40;;;17.90;55.00;;;;;;7382690;19;20031;-83
2022/09/20 10:21:40;;;;;;;9.52;1.50;;;17.90;55.10;;;;;;7382580;19;20018;-83
2022/09/20 10:24:29;;;;;;;9.97;1.73;;;17.90;55.00;;;;;;7380800;19;20014;-82
2022/09/20 10:27:32;;;;;;;8.68;1.52;;;17.90;55.50;;;;;;7399827;19;20018;-83
2022/09/20 10:30:10;;;;;;;8.82;1.63;;;18.00;55.20;;;;;;7275514;19;2004280;-82
2022/09/20 10:33:02;;;;;;;9.52;2.00;;;17.90;54.70;;;;;;7400795;19;20014;-82
2022/09/20 10:35:41;;;;;;;6.10;1.70;;;17.90;55.20;;;;;;7376860;19;20018;-80
2022/09/20 10:38:18;;;;;;;15.32;1.83;;;17.90;55.20;;;;;;7373261;19;20019;-82
2022/09/20 10:44:19;;;;;;;10.10;2.00;;;17.80;55.80;;;;;;7391022;19;20098;-83
2022/09/20 10:46:56;;;;;;;7.80;1.73;;;17.80;55.10;;;;;;7380901;19;20016;-83
2022/09/20 10:52:53;;;;;;;9.65;1.75;;;17.80;55.20;;;;;;7376894;19;20039;-84
2022/09/20 10:55:35;;;;;;;11.00;1.60;;;17.80;54.80;;;;;;7379727;19;20025;-84
2022/09/20 10:58:34;;;;;;;5.57;1.70;;;17.90;54.70;;;;;;7385357;19;20011;-84
2022/09/20 11:01:14;;;;;;;5.47;1.45;;;17.90;54.90;;;;;;7384355;19;20020;-83
2022/09/20 11:04:08;;;;;;;9.93;1.75;;;18.00;54.80;;;;;;7392981;19;20030;-85
2022/09/20 11:06:48;;;;;;;12.15;1.90;;;18.10;54.50;;;;;;7407563;19;20011;-84
2022/09/20 11:09:20;;;;;;;14.75;1.60;;;18.20;54.20;;;;;;7403858;19;20007;-82
2022/09/20 11:11:53;;;;;;;9.32;2.05;;;18.30;53.90;;;;;;7418113;19;20046;-83
2022/09/20 11:14:28;;;;;;;5.45;1.80;;;18.40;54.20;;;;;;7403455;19;20010;-83
2022/09/20 11:17:05;;;;;;;10.75;1.88;;;18.60;54.20;;;;;;7402944;19;20010;-83
2022/09/20 11:19:42;;;;;;;10.18;1.73;;;18.70;53.80;;;;;;7380034;19;20032;-85
2022/09/20 11:22:16;;;;;;;3.53;1.40;;;18.80;53.20;;;;;;7379232;19;20014;-84
2022/09/20 11:24:48;;;;;;;8.85;1.75;;;18.90;52.00;;;;;;7377792;19;20007;-84
2022/09/20 11:27:20;;;;;;;7.60;1.95;;;19.00;51.00;;;;;;7379390;19;20010;-82
2022/09/20 11:29:55;;;;;;;7.55;1.60;;;19.00;52.00;;;;;;7397562;19;20014;-82
2022/09/20 11:32:32;;;;;;;6.25;1.27;;;19.10;51.50;;;;;;7374957;19;20022;-81
2022/09/20 11:35:05;;;;;;;8.18;1.10;;;19.10;50.90;;;;;;7373073;19;20089;-82
2022/09/20 11:37:37;;;;;;;11.23;1.40;;;19.20;49.70;;;;;;7371734;19;20039;-80
2022/09/20 11:40:17;;;;;;;6.00;1.15;;;19.30;50.00;;;;;;7372657;19;20434;-83
2022/09/20 11:42:46;;;;;;;6.55;0.90;;;19.30;50.00;;;;;;7373325;19;20080;-83
2022/09/20 11:45:15;;;;;;;9.63;1.63;;;19.30;49.00;;;;;;7376215;19;20025;-81
2022/09/20 11:47:50;;;;;;;6.68;1.42;;;19.30;49.00;;;;;;7393938;19;20034;-81
2022/09/20 11:50:43;;;;;;;10.30;1.63;;;19.40;49.00;;;;;;7373957;19;20736;-82
2022/09/20 11:53:23;;;;;;;9.98;1.48;;;19.40;49.50;;;;;;7377027;19;20452;-86
2022/09/20 11:55:59;;;;;;;12.45;1.38;;;19.30;48.40;;;;;;7379088;19;20038;-83
2022/09/20 11:58:28;;;;;;;7.07;1.63;;;19.40;48.80;;;;;;7381545;19;20015;-84
2022/09/20 12:00:59;;;;;;;6.05;1.35;;;19.50;48.90;;;;;;7377013;19;20015;-84
2022/09/20 12:03:36;;;;;;;8.23;1.48;;;19.50;48.70;;;;;;7378381;19;20121;-83
2022/09/20 12:06:07;;;;;;;8.38;1.63;;;19.50;48.80;;;;;;7400225;19;20014;-83
2022/09/20 12:08:38;;;;;;;;;;;19.50;48.80;;;;;;7380441;19;20014;-84
2022/09/20 12:11:10;;;;;;;12.23;1.50;;;19.60;49.50;;;;;;7386469;19;19917;-84
2022/09/20 12:13:41;;;;;;;10.40;1.45;;;19.60;49.60;;;;;;7385377;19;20032;-83
2022/09/20 12:16:14;;;;;;;5.13;1.40;;;19.60;48.00;;;;;;7379226;19;20028;-84
2022/09/20 12:19:05;;;;;;;5.80;1.23;;;19.60;48.50;;;;;;7377830;19;20007;-85
2022/09/20 12:22:10;;;;;;;8.32;1.45;;;19.50;48.80;;;;;;7377277;19;20011;-84
2022/09/20 12:24:41;;;;;;;9.30;1.42;;;19.60;49.00;;;;;;7376468;19;20023;-85
2022/09/20 12:27:43;;;;;;;6.68;1.20;;;19.60;49.00;;;;;;7376108;19;20025;-83
2022/09/20 12:30:22;;;;;;;5.03;0.98;;;19.60;49.10;;;;;;7376019;19;20014;-84
2022/09/20 12:32:57;;;;;;;4.43;1.20;;;19.50;49.10;;;;;;7404618;19;20031;-83
2022/09/20 12:36:01;;;;;;;9.02;1.45;;;19.40;49.30;;;;;;7380329;19;20014;-82
2022/09/20 12:38:36;;;;;;;9.00;1.50;;;19.30;49.80;;;;;;7381264;19;20017;-83
2022/09/20 12:41:11;;;;;;;6.10;1.40;;;19.30;49.60;;;;;;7377761;19;20011;-82
2022/09/20 12:43:54;;;;;;;5.30;1.08;;;19.30;49.70;;;;;;7380450;19;20058;-82
2022/09/20 12:46:31;;;;;;;9.30;1.55;;;19.30;50.20;;;;;;7373163;19;20018;-82
2022/09/20 12:55:49;;;;;;;10.45;1.50;;;19.30;50.00;;;;;;7386017;19;20490;-86
2022/09/20 12:58:25;;;;;;;6.35;1.40;;;19.40;50.80;;;;;;7377075;19;20018;-84
2022/09/20 13:01:34;;;;;;;5.03;1.30;;;19.30;50.60;;;;;;7377662;19;20011;-83
2022/09/20 13:04:33;;;;;;;4.43;1.55;;;19.40;50.60;;;;;;7381695;19;20015;-84
2022/09/20 13:07:36;;;;;;;14.13;1.70;;;19.50;50.50;;;;;;7377248;19;20110;-84
2022/09/20 13:10:19;;;;;;;13.77;1.58;;;19.60;50.90;;;;;;7375072;19;20108;-85
2022/09/20 13:12:49;;;;;;;5.10;1.27;;;19.70;50.60;;;;;;7376223;19;20014;-83
2022/09/20 13:15:21;;;;;;;9.18;1.40;;;19.80;50.30;;;;;;7379075;19;20319;-85
2022/09/20 13:17:57;;;;;;;4.45;1.05;;;19.80;49.80;;;;;;7404989;19;20014;-84
2022/09/20 13:20:30;;;;;;;9.88;1.75;;;19.80;49.60;;;;;;7401216;19;20025;-85
2022/09/20 13:23:00;;;;;;;7.90;1.50;;;19.90;49.70;;;;;;7397434;19;20039;-84
2022/09/20 13:25:30;;;;;;;9.75;1.40;;;19.80;49.40;;;;;;7386016;19;20019;-86
2022/09/20 13:28:20;;;;;;;9.73;1.60;;;19.70;49.10;;;;;;7380799;19;20843;-84
2022/09/20 13:30:49;;;;;;;3.17;1.02;;;19.70;49.00;;;;;;7374481;19;20014;-83
2022/09/20 13:33:24;;;;;;;4.65;1.23;;;19.80;49.50;;;;;;7372027;19;20027;-83
2022/09/20 13:35:55;;;;;;;8.18;1.13;;;19.70;49.00;;;;;;7394142;19;20023;-84
2022/09/20 13:38:28;;;;;;;4.43;1.10;;;19.70;49.10;;;;;;7371348;19;20505;-85
2022/09/20 13:41:06;;;;;;;3.65;1.05;;;19.80;49.10;;;;;;7371665;19;20114;-84
2022/09/20 13:43:39;;;;;;;3.10;0.90;;;19.90;48.90;;;;;;7370504;19;20014;-84
2022/09/20 13:46:11;;;;;;;3.90;1.10;;;19.90;48.60;;;;;;7372244;19;20010;-83
2022/09/20 13:48:42;;;;;;;3.13;1.20;;;19.90;48.20;;;;;;7371416;19;20019;-84
2022/09/20 13:51:20;;;;;;;6.50;1.30;;;19.80;48.80;;;;;;7375049;19;20018;-84
2022/09/20 13:53:49;;;;;;;7.63;1.05;;;19.80;48.30;;;;;;7401716;19;20021;-86
2022/09/20 13:56:22;;;;;;;4.82;1.20;;;19.90;49.00;;;;;;7379688;19;20031;-84
2022/09/20 13:58:52;;;;;;;7.68;1.10;;;20.00;49.00;;;;;;7381073;19;20034;-85
2022/09/20 14:01:33;;;;;;;2.33;1.10;;;20.10;48.20;;;;;;7388067;19;20011;-84
2022/09/20 14:04:09;;;;;;;6.30;1.17;;;20.00;48.60;;;;;;7384453;19;20039;-85
2022/09/20 14:06:38;;;;;;;6.38;1.25;;;20.10;48.70;;;;;;7382624;19;20251;-83